createdAt,value
2022-10-12T00:01:45.918Z,101836.22
2022-10-12T00:04:14.569Z,101841.47
2022-10-12T00:06:42.813Z,101847.13
2022-10-12T00:09:13.079Z,101847.00
2022-10-12T00:11:42.946Z,101842.47
2022-10-12T00:14:11.406Z,101834.63
2022-10-12T00:16:39.557Z,101840.00
2022-10-12T00:19:07.856Z,101832.19
2022-10-12T00:21:36.662Z,101835.88
2022-10-12T00:24:05.427Z,101835.88
2022-10-12T00:26:35.315Z,101829.88
2022-10-12T00:29:04.784Z,101826.91
2022-10-12T00:31:34.326Z,101821.69
2022-10-12T00:34:06.406Z,101823.13
2022-10-12T00:36:37.456Z,101824.84
2022-10-12T00:39:10.342Z,101819.59
2022-10-12T00:41:43.382Z,101817.63
2022-10-12T00:44:40.332Z,101817.53
2022-10-12T00:47:20.992Z,101813.94
2022-10-12T00:49:53.811Z,101807.34
2022-10-12T00:52:25.615Z,101797.41
2022-10-12T00:54:56.862Z,101799.41
2022-10-12T00:57:26.738Z,101796.56
2022-10-12T00:59:59.657Z,101803.69
2022-10-12T01:02:30.913Z,101802.59
2022-10-12T01:04:59.644Z,101800.84
2022-10-12T01:07:27.971Z,101799.66
2022-10-12T01:09:59.073Z,101796.00
2022-10-12T01:12:30.747Z,101800.38
2022-10-12T01:15:08.584Z,101797.31
2022-10-12T01:17:46.866Z,101798.31
2022-10-12T01:20:40.130Z,101792.78
2022-10-12T01:23:47.101Z,101791.78
2022-10-12T01:26:43.258Z,101793.53
2022-10-12T01:29:29.183Z,101785.94
2022-10-12T01:32:08.023Z,101788.63
2022-10-12T01:34:46.115Z,101780.56
2022-10-12T01:37:22.042Z,101784.22
2022-10-12T01:39:55.665Z,101782.25
2022-10-12T01:42:28.828Z,101775.16
2022-10-12T01:45:08.479Z,101763.81
2022-10-12T01:47:40.912Z,101766.38
2022-10-12T01:50:13.657Z,101761.13
2022-10-12T01:52:52.805Z,101749.47
2022-10-12T01:55:30.277Z,101745.84
2022-10-12T01:58:27.780Z,101751.47
2022-10-12T02:01:04.308Z,101750.47
2022-10-12T02:03:42.208Z,101753.06
2022-10-12T02:06:13.862Z,101749.38
2022-10-12T02:08:47.776Z,101744.00
2022-10-12T02:11:18.406Z,101742.75
2022-10-12T02:13:51.807Z,101735.53
2022-10-12T02:16:24.487Z,101730.72
2022-10-12T02:18:57.880Z,101728.91
2022-10-12T02:21:31.479Z,101729.88
2022-10-12T02:24:04.814Z,101729.88
2022-10-12T02:26:35.580Z,101722.78
2022-10-12T02:29:07.779Z,101728.19
2022-10-12T02:31:44.537Z,101734.16
2022-10-12T02:34:18.047Z,101731.63
2022-10-12T02:36:52.149Z,101728.78
2022-10-12T02:39:25.055Z,101727.09
2022-10-12T02:41:59.262Z,101728.63
2022-10-12T02:44:32.008Z,101726.69
2022-10-12T02:47:04.599Z,101718.63
2022-10-12T02:49:36.483Z,101718.34
2022-10-12T02:52:07.505Z,101725.44
2022-10-12T02:54:35.791Z,101734.25
2022-10-12T02:57:04.299Z,101728.00
2022-10-12T02:59:32.716Z,101727.72
2022-10-12T03:02:01.234Z,101736.66
2022-10-12T03:04:30.163Z,101724.19
2022-10-12T03:07:00.954Z,101728.34
2022-10-12T03:09:29.947Z,101721.25
2022-10-12T03:11:59.055Z,101722.94
2022-10-12T03:14:28.142Z,101715.88
2022-10-12T03:16:56.356Z,101718.41
2022-10-12T03:19:24.908Z,101713.03
2022-10-12T03:21:53.181Z,101705.94
2022-10-12T03:24:22.888Z,101710.22
2022-10-12T03:26:52.175Z,101701.28
2022-10-12T03:29:20.595Z,101694.78
2022-10-12T03:31:48.852Z,101695.50
2022-10-12T03:34:17.032Z,101684.00
2022-10-12T03:36:45.293Z,101678.88
2022-10-12T03:39:14.178Z,101682.31
2022-10-12T03:41:44.101Z,101671.53
2022-10-12T03:44:12.305Z,101673.38
2022-10-12T03:46:40.457Z,101677.91
2022-10-12T03:49:08.938Z,101683.56
2022-10-12T03:51:37.291Z,101679.88
2022-10-12T03:54:05.794Z,101676.31
2022-10-12T03:56:34.475Z,101675.63
2022-10-12T03:59:04.294Z,101679.41
2022-10-12T04:01:32.516Z,101676.00
2022-10-12T04:04:00.773Z,101672.72
2022-10-12T04:06:29.098Z,101673.94
2022-10-12T04:08:58.808Z,101670.56
2022-10-12T04:11:27.836Z,101666.88
2022-10-12T04:13:56.198Z,101672.13
2022-10-12T04:16:28.749Z,101654.50
2022-10-12T04:19:00.306Z,101662.00
2022-10-12T04:21:35.492Z,101649.50
2022-10-12T04:24:04.647Z,101650.50
2022-10-12T04:26:32.847Z,101643.56
2022-10-12T04:29:01.462Z,101649.66
2022-10-12T04:31:31.216Z,101649.91
2022-10-12T04:33:59.796Z,101650.66
2022-10-12T04:36:28.590Z,101646.25
2022-10-12T04:39:01.371Z,101637.44
2022-10-12T04:41:30.157Z,101640.88
2022-10-12T04:44:02.166Z,101641.22
2022-10-12T04:46:32.578Z,101642.31
2022-10-12T04:49:01.476Z,101645.28
2022-10-12T04:51:30.636Z,101640.41
2022-10-12T04:54:01.467Z,101639.09
2022-10-12T04:56:29.595Z,101648.53
2022-10-12T04:58:58.027Z,101650.50
2022-10-12T05:01:26.129Z,101657.59
2022-10-12T05:03:56.003Z,101649.78
2022-10-12T05:06:24.697Z,101650.75
2022-10-12T05:08:52.782Z,101652.72
2022-10-12T05:11:21.076Z,101655.66
2022-10-12T05:13:50.736Z,101663.88
2022-10-12T05:16:18.825Z,101659.59
2022-10-12T05:18:47.007Z,101650.91
2022-10-12T05:21:16.748Z,101660.81
2022-10-12T05:23:45.002Z,101660.81
2022-10-12T05:26:13.264Z,101647.25
2022-10-12T05:28:41.611Z,101654.94
2022-10-12T05:31:12.322Z,101647.59
2022-10-12T05:33:40.543Z,101636.00
2022-10-12T05:36:09.686Z,101640.25
2022-10-12T05:38:39.389Z,101631.59
2022-10-12T05:41:07.948Z,101643.69
2022-10-12T05:43:36.111Z,101641.97
2022-10-12T05:46:04.807Z,101640.38
2022-10-12T05:48:34.404Z,101650.75
2022-10-12T05:51:02.524Z,101648.53
2022-10-12T05:53:31.044Z,101645.00
2022-10-12T05:56:02.586Z,101633.84
2022-10-12T05:58:31.963Z,101636.16
2022-10-12T06:01:06.986Z,101622.56
2022-10-12T06:03:35.370Z,101636.63
2022-10-12T06:06:03.790Z,101643.00
2022-10-12T06:08:32.191Z,101626.00
2022-10-12T06:11:01.792Z,101615.81
2022-10-12T06:13:29.942Z,101620.34
2022-10-12T06:15:58.345Z,101613.97
2022-10-12T06:18:26.519Z,101613.00
2022-10-12T06:21:20.999Z,101594.16
2022-10-12T06:23:44.054Z,101604.66
2022-10-12T06:26:13.515Z,101606.63
2022-10-12T06:28:42.078Z,101598.56
2022-10-12T06:31:10.706Z,101593.19
2022-10-12T06:33:38.858Z,101601.34
2022-10-12T06:36:07.367Z,101595.13
2022-10-12T06:38:35.353Z,101586.34
2022-10-12T06:41:03.386Z,101581.97
2022-10-12T06:43:32.778Z,101567.66
2022-10-12T06:46:02.072Z,101563.38
2022-10-12T06:48:30.686Z,101554.84
2022-10-12T06:50:59.126Z,101549.84
2022-10-12T06:53:31.199Z,101545.47
2022-10-12T06:55:59.460Z,101550.53
2022-10-12T06:58:27.712Z,101556.84
2022-10-12T07:00:57.241Z,101554.16
2022-10-12T07:03:25.351Z,101551.22
2022-10-12T07:05:53.632Z,101549.06
2022-10-12T07:08:23.439Z,101557.59
2022-10-12T07:10:53.990Z,101548.41
2022-10-12T07:13:27.230Z,101556.94
2022-10-12T07:15:56.936Z,101550.31
2022-10-12T07:18:25.340Z,101549.38
2022-10-12T07:20:55.237Z,101558.41
2022-10-12T07:23:23.422Z,101553.38
2022-10-12T07:25:52.508Z,101556.69
2022-10-12T07:28:22.503Z,101567.09
2022-10-12T07:30:51.098Z,101579.91
2022-10-12T07:33:20.827Z,101587.75
2022-10-12T07:36:14.439Z,101594.16
2022-10-12T07:38:45.516Z,101602.72
2022-10-12T07:41:14.675Z,101601.78
2022-10-12T07:43:43.934Z,101610.88
2022-10-12T07:46:13.172Z,101615.47
2022-10-12T07:48:48.874Z,101610.00
2022-10-12T07:51:18.276Z,101614.53
2022-10-12T07:53:46.641Z,101614.84
2022-10-12T07:56:16.314Z,101618.38
2022-10-12T07:58:49.091Z,101623.94
2022-10-12T08:01:18.070Z,101625.31
2022-10-12T08:03:48.777Z,101628.75
2022-10-12T08:06:19.528Z,101619.94
2022-10-12T08:08:48.094Z,101620.94
2022-10-12T08:11:17.173Z,101614.28
2022-10-12T08:13:46.517Z,101624.22
2022-10-12T08:16:17.286Z,101618.13
2022-10-12T08:18:48.344Z,101621.13
2022-10-12T08:21:20.252Z,101621.38
2022-10-12T08:23:48.897Z,101622.81
2022-10-12T08:26:17.688Z,101630.75
2022-10-12T08:28:46.509Z,101621.69
2022-10-12T08:31:19.882Z,101613.59
2022-10-12T08:33:48.182Z,101614.56
2022-10-12T08:36:18.256Z,101625.25
2022-10-12T08:38:48.942Z,101622.81
2022-10-12T08:41:32.429Z,101613.16
2022-10-12T08:44:14.934Z,101606.22
2022-10-12T08:46:44.089Z,101601.38
2022-10-12T08:49:20.233Z,101590.38
2022-10-12T08:51:54.706Z,101591.63
2022-10-12T08:54:48.215Z,101592.00
2022-10-12T08:57:19.131Z,101597.91
2022-10-12T08:59:50.085Z,101598.13
2022-10-12T09:05:57.608Z,101592.69
2022-10-12T09:09:00.600Z,101599.34
2022-10-12T09:11:47.812Z,101611.72
2022-10-12T09:14:54.387Z,101607.47
2022-10-12T09:17:28.400Z,101606.78
2022-10-12T09:20:10.375Z,101602.38
2022-10-12T09:25:51.260Z,101596.97
2022-10-12T09:28:32.295Z,101595.84
2022-10-12T09:31:17.745Z,101593.44
2022-10-12T09:33:53.502Z,101591.00
2022-10-12T09:36:26.560Z,101598.44
2022-10-12T09:38:59.612Z,101601.66
2022-10-12T09:42:03.087Z,101597.97
2022-10-12T09:47:28.737Z,101605.47
2022-10-12T10:28:52.121Z,101586.84
2022-10-12T10:31:25.588Z,101580.44
2022-10-12T10:34:36.222Z,101590.63
2022-10-12T10:39:53.310Z,101588.38
2022-10-12T10:42:24.295Z,101593.78
2022-10-12T10:44:59.531Z,101592.94
2022-10-12T10:50:13.761Z,101588.00
2022-10-12T10:55:50.554Z,101576.31
2022-10-12T10:58:38.806Z,101584.81
2022-10-12T11:01:41.384Z,101569.28
2022-10-12T11:04:20.004Z,101561.16
2022-10-12T11:07:02.302Z,101561.00
2022-10-12T11:09:39.841Z,101559.44
2022-10-12T11:12:31.257Z,101555.94
2022-10-12T11:15:17.935Z,101552.47
2022-10-12T11:17:50.496Z,101554.13
2022-10-12T11:21:29.144Z,101546.31
2022-10-12T11:24:16.856Z,101549.00
2022-10-12T11:26:54.368Z,101537.88
2022-10-12T11:29:27.436Z,101531.28
2022-10-12T11:32:22.711Z,101527.19
2022-10-12T11:35:03.374Z,101527.66
2022-10-12T11:37:40.439Z,101531.84
2022-10-12T11:43:36.147Z,101521.88
2022-10-12T11:46:13.171Z,101518.47
2022-10-12T11:48:49.485Z,101520.63
2022-10-12T11:51:18.904Z,101521.81
2022-10-12T11:53:55.648Z,101517.81
2022-10-12T11:56:36.272Z,101513.75
2022-10-12T11:59:19.350Z,101514.38
2022-10-12T12:01:57.745Z,101513.00
2022-10-12T12:04:41.754Z,101509.38
2022-10-12T12:11:20.647Z,101509.97
2022-10-12T12:13:52.485Z,101509.13
2022-10-12T12:16:31.750Z,101505.41
2022-10-12T12:19:16.919Z,101510.53
2022-10-12T12:22:19.399Z,101505.41
2022-10-12T12:25:13.504Z,101506.69
2022-10-12T12:31:13.726Z,101498.69
2022-10-12T12:36:58.417Z,101498.56
2022-10-12T12:39:43.569Z,101495.78
2022-10-12T12:42:34.502Z,101497.16
2022-10-12T12:45:57.024Z,101490.28
2022-10-12T12:49:24.189Z,101504.66
2022-10-12T12:51:58.192Z,101503.41
2022-10-12T12:54:33.867Z,101489.28
2022-10-12T12:57:33.775Z,101488.72
2022-10-12T13:00:25.601Z,101487.88
2022-10-12T13:03:25.525Z,101485.56
2022-10-12T13:06:35.074Z,101477.31
2022-10-12T13:09:45.529Z,101469.69
2022-10-12T13:19:09.999Z,101471.63
2022-10-12T13:21:44.831Z,101463.06
2022-10-12T13:24:20.418Z,101466.78
2022-10-12T13:26:53.001Z,101463.34
2022-10-12T13:31:56.160Z,101458.09
2022-10-12T13:34:29.956Z,101456.25
2022-10-12T13:37:03.817Z,101452.16
2022-10-12T13:39:40.330Z,101450.47
2022-10-12T13:42:09.048Z,101442.34
2022-10-12T13:44:38.231Z,101445.72
2022-10-12T13:47:23.348Z,101436.25
2022-10-12T13:50:02.411Z,101433.53
2022-10-12T13:52:36.559Z,101434.41
2022-10-12T13:55:17.796Z,101426.41
2022-10-12T13:57:50.959Z,101434.06
2022-10-12T14:00:25.194Z,101433.06
2022-10-12T14:03:00.933Z,101437.63
2022-10-12T14:05:30.877Z,101439.34
2022-10-12T14:08:02.356Z,101436.94
2022-10-12T14:10:35.291Z,101430.88
2022-10-12T14:13:06.171Z,101420.91
2022-10-12T14:15:37.507Z,101428.56
2022-10-12T14:18:22.553Z,101423.13
2022-10-12T14:20:50.837Z,101422.13
2022-10-12T14:23:26.503Z,101414.88
2022-10-12T14:25:57.173Z,101414.66
2022-10-12T14:28:33.333Z,101410.09
2022-10-12T14:31:01.948Z,101407.34
2022-10-12T14:33:37.873Z,101401.94
2022-10-12T14:36:23.921Z,101413.59
2022-10-12T14:38:52.910Z,101402.78
2022-10-12T14:41:37.856Z,101391.78
2022-10-12T14:44:13.566Z,101396.34
2022-10-12T14:46:55.015Z,101389.63
2022-10-12T14:49:25.764Z,101394.38
2022-10-12T14:51:55.807Z,101392.69
2022-10-12T14:54:24.520Z,101389.81
2022-10-12T14:56:55.136Z,101385.72
2022-10-12T14:59:23.398Z,101390.47
2022-10-12T15:01:51.825Z,101387.38
2022-10-12T15:04:21.665Z,101381.13
2022-10-12T15:06:51.013Z,101375.72
2022-10-12T15:09:20.331Z,101386.19
2022-10-12T15:11:56.152Z,101381.50
2022-10-12T15:14:27.800Z,101386.69
2022-10-12T15:17:00.019Z,101387.38
2022-10-12T15:25:03.794Z,101384.06
2022-10-12T15:36:34.981Z,101382.84
2022-10-12T15:39:03.167Z,101378.47
2022-10-12T15:41:32.386Z,101363.41
2022-10-12T15:44:01.080Z,101368.47
2022-10-12T15:46:30.470Z,101364.38
2022-10-12T15:49:03.716Z,101366.88
2022-10-12T15:51:32.725Z,101366.09
2022-10-12T15:54:01.042Z,101365.22
2022-10-12T15:56:29.708Z,101354.28
2022-10-12T15:58:59.402Z,101351.19
2022-10-12T16:01:27.626Z,101362.16
2022-10-12T16:04:00.701Z,101360.31
2022-10-12T16:06:29.240Z,101358.94
2022-10-12T16:08:59.906Z,101365.72
2022-10-12T16:11:28.079Z,101362.25
2022-10-12T16:14:20.498Z,101373.78
2022-10-12T16:17:02.279Z,101375.47
2022-10-12T16:19:35.919Z,101365.19
2022-10-12T16:22:05.522Z,101371.44
2022-10-12T16:24:35.205Z,101374.31
2022-10-12T16:27:05.064Z,101377.88
2022-10-12T16:29:45.387Z,101371.66
2022-10-12T16:32:18.592Z,101374.22
2022-10-12T16:34:48.503Z,101385.03
2022-10-12T16:37:16.952Z,101381.00
2022-10-12T16:39:45.161Z,101383.03
2022-10-12T16:42:13.623Z,101383.88
2022-10-12T16:44:45.014Z,101373.03
2022-10-12T16:47:13.783Z,101363.78
2022-10-12T16:49:42.365Z,101349.41
2022-10-12T16:52:14.579Z,101336.88
2022-10-12T16:54:42.857Z,101346.84
2022-10-12T16:57:11.317Z,101355.97
2022-10-12T16:59:39.313Z,101374.22
2022-10-12T17:02:07.420Z,101386.19
2022-10-12T17:04:35.712Z,101391.59
2022-10-12T17:07:03.774Z,101392.44
2022-10-12T17:09:33.480Z,101396.84
2022-10-12T17:12:01.898Z,101397.56
2022-10-12T17:14:30.334Z,101391.31
2022-10-12T17:16:58.722Z,101386.56
2022-10-12T17:19:28.764Z,101386.72
2022-10-12T17:21:59.480Z,101374.22
2022-10-12T17:24:32.736Z,101364.75
2022-10-12T17:27:04.030Z,101365.09
2022-10-12T17:29:36.683Z,101360.53
2022-10-12T17:32:05.780Z,101368.47
2022-10-12T17:34:38.611Z,101373.03
2022-10-12T17:37:08.260Z,101369.66
2022-10-12T17:39:39.113Z,101376.75
2022-10-12T17:42:09.499Z,101386.03
2022-10-12T17:44:37.632Z,101392.69
2022-10-12T17:47:06.190Z,101393.84
2022-10-12T17:49:34.247Z,101394.50
2022-10-12T17:52:02.411Z,101396.84
2022-10-12T17:54:30.699Z,101411.38
2022-10-12T17:56:59.387Z,101404.44
2022-10-12T17:59:29.544Z,101411.75
2022-10-12T18:01:57.596Z,101410.38
2022-10-12T18:04:25.790Z,101407.66
2022-10-12T18:06:53.900Z,101414.47
2022-10-12T18:09:22.829Z,101415.31
2022-10-12T18:11:54.687Z,101410.38
2022-10-12T18:14:23.180Z,101414.09
2022-10-12T18:17:00.289Z,101411.53
2022-10-12T18:19:33.697Z,101411.53
2022-10-12T18:22:03.629Z,101401.56
2022-10-12T18:24:32.249Z,101401.41
2022-10-12T18:27:27.984Z,101403.97
2022-10-12T18:29:56.477Z,101390.75
2022-10-12T18:32:26.468Z,101404.09
2022-10-12T18:34:56.116Z,101410.38
2022-10-12T18:37:25.178Z,101405.81
2022-10-12T18:39:53.904Z,101399.88
2022-10-12T18:42:25.598Z,101397.84
2022-10-12T18:45:08.961Z,101400.72
2022-10-12T18:47:43.186Z,101403.44
2022-10-12T18:50:13.667Z,101403.25
2022-10-12T18:52:44.812Z,101388.06
2022-10-12T18:55:14.555Z,101386.88
2022-10-12T18:57:45.533Z,101371.53
2022-10-12T19:00:15.615Z,101359.16
2022-10-12T19:02:46.041Z,101357.28
2022-10-12T19:05:16.284Z,101356.97
2022-10-12T19:07:44.643Z,101348.88
2022-10-12T19:10:13.240Z,101329.22
2022-10-12T19:12:49.616Z,101334.88
2022-10-12T19:15:21.689Z,101329.78
2022-10-12T19:24:08.512Z,101297.97
2022-10-12T19:26:40.185Z,101309.63
2022-10-12T19:39:54.029Z,101349.91
2022-10-12T19:42:22.515Z,101374.53
2022-10-12T19:45:21.107Z,101393.94
2022-10-12T19:50:47.143Z,101365.50
2022-10-12T19:53:17.888Z,101385.09
2022-10-12T19:59:01.697Z,101393.22
2022-10-12T20:07:57.499Z,101397.66
2022-10-12T20:10:25.985Z,101390.25
2022-10-12T20:12:59.035Z,101389.84
2022-10-12T20:15:27.853Z,101382.41
2022-10-12T20:17:56.232Z,101392.38
2022-10-12T20:20:24.586Z,101388.81
2022-10-12T20:22:53.177Z,101381.31
2022-10-12T20:25:21.214Z,101380.31
2022-10-12T20:27:51.188Z,101387.88
2022-10-12T20:30:36.460Z,101389.91
2022-10-12T20:33:05.265Z,101383.09
2022-10-12T20:35:33.782Z,101389.59
2022-10-12T20:38:02.828Z,101391.06
2022-10-12T20:40:32.142Z,101387.88
2022-10-12T20:43:00.502Z,101390.13
2022-10-12T20:45:30.077Z,101390.13
2022-10-12T20:47:58.948Z,101389.97
2022-10-12T20:50:34.759Z,101383.41
2022-10-12T20:53:03.557Z,101387.38
2022-10-12T20:55:32.690Z,101378.25
2022-10-12T20:58:02.032Z,101390.63
2022-10-12T21:00:33.041Z,101387.22
2022-10-12T21:03:06.716Z,101386.38
2022-10-12T21:05:36.385Z,101381.81
2022-10-12T21:08:05.798Z,101386.84
2022-10-12T21:10:40.202Z,101384.13
2022-10-12T21:19:26.456Z,101384.63
2022-10-12T21:21:57.078Z,101371.44
2022-10-12T21:24:29.762Z,101375.47
2022-10-12T21:27:12.919Z,101380.03
2022-10-12T21:29:44.333Z,101367.66
2022-10-12T21:32:14.461Z,101370.06
2022-10-12T21:34:43.327Z,101362.97
2022-10-12T21:37:18.257Z,101357.38
2022-10-12T21:39:49.632Z,101368.75
2022-10-12T21:42:21.816Z,101362.50
2022-10-12T21:44:51.604Z,101363.47
2022-10-12T21:47:23.552Z,101366.44
2022-10-12T21:49:57.919Z,101361.03
2022-10-12T21:52:29.643Z,101363.94
2022-10-12T21:54:59.644Z,101362.38
2022-10-12T22:04:43.223Z,101364.78
2022-10-12T22:25:12.290Z,101351.53
2022-10-12T22:28:01.911Z,101349.84
2022-10-12T22:30:36.146Z,101351.13
2022-10-12T22:34:02.628Z,101350.97
2022-10-12T22:36:45.859Z,101354.13
2022-10-12T22:40:04.214Z,101353.97
2022-10-12T22:42:46.281Z,101357.47
2022-10-12T22:48:36.818Z,101345.81
2022-10-12T22:51:27.467Z,101349.34
